Time;durP1;ratioP1;P1;durP2;ratioP2;P2;SDS_P1;SDS_P2;PMS_P1;PMS_P2;Temp;Humidity;BMP_temperature;BMP_pressure;BME280_temperature;BME280_humidity;BME280_pressure;Samples;Min_cycle;Max_cycle;Signal;HPM_P1;HPM_P2
2023/10/26 00:01:03;;;;;;;23.67;14.27;;;;;;;;;;5062955;28;20144;-69
2023/10/26 00:03:29;;;;;;;21.20;14.50;;;;;;;;;;5054088;28;20041;-69
2023/10/26 00:05:55;;;;;;;17.27;12.82;;;;;;;;;;5046739;28;20040;-69
2023/10/26 00:08:21;;;;;;;19.75;14.05;;;;;;;;;;5070239;28;20650;-69
2023/10/26 00:10:47;;;;;;;20.02;13.00;;;;;;;;;;5055433;28;20041;-70
2023/10/26 00:13:13;;;;;;;18.00;13.23;;;;;;;;;;5057601;28;20049;-69
2023/10/26 00:15:38;;;;;;;22.02;14.27;;;10.40;99.90;;;;;;5045958;28;20044;-69
2023/10/26 00:18:04;;;;;;;22.30;15.10;;;;;;;;;;5049901;28;20076;-70
2023/10/26 00:20:30;;;;;;;21.27;14.85;;;10.60;99.90;;;;;;5045700;28;20052;-69
2023/10/26 00:22:56;;;;;;;23.27;14.13;;;;;;;;;;5068866;28;20060;-69
2023/10/26 00:25:22;;;;;;;22.55;14.13;;;;;;;;;;5061472;28;20076;-69
2023/10/26 00:27:48;;;;;;;25.58;14.40;;;;;;;;;;5046765;28;20127;-69
2023/10/26 00:30:14;;;;;;;25.23;15.35;;;;;;;;;;5045246;28;20604;-69
2023/10/26 00:32:40;;;;;;;19.35;14.27;;;;;;;;;;5080205;28;20052;-69
2023/10/26 00:35:07;;;;;;;21.48;14.07;;;;;;;;;;5063471;28;20037;-69
2023/10/26 00:37:33;;;;;;;20.77;14.63;;;;;;;;;;5043426;28;20040;-68
2023/10/26 00:39:59;;;;;;;21.33;12.95;;;;;;;;;;5046816;28;20068;-69
2023/10/26 00:42:25;;;;;;;23.23;14.38;;;;;;;;;;5046306;28;20048;-70
2023/10/26 00:44:53;;;;;;;24.88;15.00;;;;;;;;;;5042690;28;20060;-69
2023/10/26 00:47:19;;;;;;;19.80;14.50;;;;;;;;;;5063874;28;20048;-69
2023/10/26 00:49:45;;;;;;;20.48;14.82;;;;;;;;;;5048661;28;20064;-69
2023/10/26 00:52:12;;;;;;;19.95;13.02;;;;;;;;;;5038038;28;20048;-69
2023/10/26 00:54:41;;;;;;;18.20;13.43;;;;;;;;;;5035921;28;20037;-69
2023/10/26 00:57:07;;;;;;;19.75;14.63;;;;;;;;;;5039742;28;20396;-69
2023/10/26 00:59:34;;;;;;;22.17;14.35;;;;;;;;;;5041737;28;20044;-69
2023/10/26 01:02:02;;;;;;;20.73;14.55;;;10.50;99.90;;;;;;5045151;28;20045;-69
2023/10/26 01:04:28;;;;;;;23.63;14.90;;;;;;;;;;5056950;28;20044;-69
2023/10/26 01:06:54;;;;;;;20.40;12.57;;;;;;;;;;5047294;28;20547;-69
2023/10/26 01:09:21;;;;;;;21.27;13.57;;;10.30;99.90;;;;;;5043317;28;20052;-69
2023/10/26 01:11:47;;;;;;;20.45;14.00;;;;;;;;;;5045942;28;20133;-69
2023/10/26 01:14:14;;;;;;;18.77;13.52;;;;;;;;;;5065240;28;20045;-69
2023/10/26 01:16:39;;;;;;;21.15;12.43;;;10.40;99.90;;;;;;5040719;28;20045;-69
2023/10/26 01:19:07;;;;;;;18.52;13.45;;;;;;;;;;5056844;28;20415;-69
2023/10/26 01:21:49;;;;;;;24.35;14.90;;;;;;;;;;5047203;28;20068;-69
2023/10/26 01:24:14;;;;;;;24.23;13.55;;;10.40;99.90;;;;;;5056361;28;20503;-69
2023/10/26 01:26:40;;;;;;;21.30;13.80;;;;;;;;;;5042310;28;20090;-69
2023/10/26 01:29:06;;;;;;;21.00;13.27;;;;;;;;;;5044840;28;20076;-69
2023/10/26 01:31:32;;;;;;;20.15;13.75;;;;;;;;;;5043483;28;20127;-69
2023/10/26 01:33:58;;;;;;;19.50;14.07;;;;;;;;;;5057506;28;20144;-69
2023/10/26 01:36:25;;;;;;;23.48;15.07;;;;;;;;;;5045274;28;20036;-69
2023/10/26 01:38:51;;;;;;;24.13;14.68;;;;;;;;;;5039666;28;20041;-69
2023/10/26 01:41:17;;;;;;;23.35;14.57;;;10.30;99.90;;;;;;5042076;28;20049;-69
2023/10/26 01:43:43;;;;;;;20.27;14.77;;;;;;;;;;5069354;28;20393;-69
2023/10/26 01:46:09;;;;;;;25.05;15.32;;;;;;;;;;5041070;28;20428;-69
2023/10/26 01:48:35;;;;;;;20.77;15.02;;;;;;;;;;5046546;28;20479;-69
2023/10/26 01:51:01;;;;;;;22.27;15.65;;;;;;;;;;5059945;28;20076;-69
2023/10/26 01:53:27;;;;;;;20.38;13.73;;;;;;;;;;5064816;28;20053;-69
2023/10/26 01:55:53;;;;;;;22.55;14.35;;;;;;;;;;5046736;28;20044;-69
2023/10/26 01:58:19;;;;;;;22.77;14.55;;;;;;;;;;5064389;28;20047;-69
2023/10/26 02:00:45;;;;;;;21.42;13.93;;;;;;;;;;5041623;28;20120;-69
2023/10/26 02:03:11;;;;;;;21.40;15.13;;;;;;;;;;5048060;28;20102;-69
2023/10/26 02:05:37;;;;;;;20.67;14.77;;;;;;;;;;5055808;28;20051;-69
2023/10/26 02:08:03;;;;;;;25.80;15.77;;;;;;;;;;5044876;28;20059;-70
2023/10/26 02:10:30;;;;;;;19.98;13.70;;;;;;;;;;5054589;28;20451;-69
2023/10/26 02:12:56;;;;;;;22.02;13.50;;;;;;;;;;5047489;28;20047;-69
2023/10/26 02:15:22;;;;;;;25.05;14.77;;;;;;;;;;5050803;28;20045;-69
2023/10/26 02:17:48;;;;;;;26.73;16.30;;;;;;;;;;5041910;28;20125;-69
2023/10/26 02:20:14;;;;;;;25.48;15.80;;;;;;;;;;5042819;28;20053;-69
2023/10/26 02:22:40;;;;;;;20.38;14.68;;;;;;;;;;5039091;28;20060;-69
2023/10/26 02:25:07;;;;;;;27.15;15.88;;;;;;;;;;5037061;28;20048;-69
2023/10/26 02:27:33;;;;;;;20.98;14.65;;;;;;;;;;5044223;28;20048;-69
2023/10/26 02:29:59;;;;;;;22.45;14.35;;;;;;;;;;5042582;28;20048;-69
2023/10/26 02:32:26;;;;;;;26.85;15.00;;;;;;;;;;5045723;28;20094;-69
2023/10/26 02:34:51;;;;;;;24.67;16.15;;;;;;;;;;5075342;28;20086;-69
2023/10/26 02:37:19;;;;;;;28.15;17.30;;;;;;;;;;5042367;28;20420;-69
2023/10/26 02:39:45;;;;;;;28.20;16.77;;;;;;;;;;5053398;28;20515;-69
2023/10/26 02:42:11;;;;;;;25.25;15.93;;;;;;;;;;5066348;28;20583;-69
2023/10/26 02:44:37;;;;;;;24.95;15.88;;;;;;;;;;5047256;28;20040;-69
2023/10/26 02:47:03;;;;;;;26.85;17.10;;;10.40;99.90;;;;;;5048047;28;20064;-68
2023/10/26 02:49:30;;;;;;;28.52;17.38;;;;;;;;;;5050670;28;20519;-69
2023/10/26 02:51:56;;;;;;;24.88;16.48;;;;;;;;;;5045526;28;20155;-69
2023/10/26 02:54:23;;;;;;;27.05;17.17;;;;;;;;;;5055252;28;20040;-69
2023/10/26 02:56:49;;;;;;;31.33;17.38;;;;;;;;;;5049493;28;20044;-69
2023/10/26 02:59:15;;;;;;;28.27;17.00;;;;;;;;;;5069149;28;20616;-69
2023/10/26 03:01:41;;;;;;;32.78;17.55;;;;;;;;;;5039569;28;20048;-69
2023/10/26 03:04:07;;;;;;;26.90;17.83;;;;;;;;;;5058492;28;20113;-69
2023/10/26 03:06:40;;;;;;;29.25;18.05;;;;;;;;;;5044893;28;20432;-69
2023/10/26 03:09:08;;;;;;;29.40;17.38;;;;;;;;;;5047259;28;20476;-69
2023/10/26 03:11:34;;;;;;;29.23;19.58;;;10.20;99.90;;;;;;5075031;28;20092;-69
2023/10/26 03:14:00;;;;;;;26.95;17.50;;;;;;;;;;5051937;28;20045;-69
2023/10/26 03:16:26;;;;;;;28.35;18.00;;;;;;;;;;5065553;28;20377;-69
2023/10/26 03:18:52;;;;;;;27.52;19.13;;;;;;;;;;5049402;28;20055;-69
2023/10/26 03:21:20;;;;;;;28.98;18.77;;;;;;;;;;5030067;28;20052;-68
2023/10/26 03:23:52;;;;;;;31.08;18.98;;;;;;;;;;5069823;28;20499;-69
2023/10/26 03:26:18;;;;;;;34.15;18.98;;;;;;;;;;5074638;28;20052;-69
2023/10/26 03:28:43;;;;;;;29.55;18.67;;;10.30;99.90;;;;;;5071357;28;20040;-69
2023/10/26 03:31:12;;;;;;;25.75;17.55;;;;;;;;;;5052753;28;20040;-69
2023/10/26 03:33:39;;;;;;;30.08;19.08;;;10.30;99.90;;;;;;5059335;28;20041;-69
2023/10/26 03:36:05;;;;;;;28.42;18.55;;;;;;;;;;5049321;28;20067;-69
2023/10/26 03:38:31;;;;;;;28.35;18.90;;;;;;;;;;5049243;28;20575;-69
2023/10/26 03:40:57;;;;;;;27.95;18.55;;;;;;;;;;5044877;28;20051;-69
2023/10/26 03:43:23;;;;;;;35.60;19.00;;;;;;;;;;5060128;28;20033;-69
2023/10/26 03:45:49;;;;;;;29.38;17.77;;;;;;;;;;5040200;28;20044;-69
2023/10/26 03:48:15;;;;;;;27.98;18.02;;;;;;;;;;5045427;28;20485;-69
2023/10/26 03:50:43;;;;;;;32.42;18.42;;;;;;;;;;5037466;28;20550;-69
2023/10/26 03:53:09;;;;;;;26.55;17.52;;;;;;;;;;5045844;28;20044;-69
2023/10/26 03:55:35;;;;;;;30.42;18.23;;;;;;;;;;5054622;28;20040;-69
2023/10/26 03:58:01;;;;;;;26.33;16.15;;;;;;;;;;5071106;28;20104;-69
2023/10/26 04:00:28;;;;;;;25.45;16.85;;;;;;;;;;5041449;28;20044;-69
2023/10/26 04:02:53;;;;;;;23.23;16.17;;;;;;;;;;5044945;28;20049;-69
2023/10/26 04:05:19;;;;;;;28.65;16.83;;;;;;;;;;5039661;28;20110;-69
2023/10/26 04:07:45;;;;;;;28.90;17.52;;;10.00;99.90;;;;;;5042794;28;20048;-69
2023/10/26 04:10:11;;;;;;;25.95;17.83;;;;;;;;;;5049815;28;20045;-69
2023/10/26 04:12:37;;;;;;;27.80;16.30;;;;;;;;;;5048674;28;20154;-69
2023/10/26 04:15:04;;;;;;;25.83;17.70;;;;;;;;;;5067148;28;20040;-69
2023/10/26 04:17:30;;;;;;;25.83;17.05;;;;;;;;;;5063171;28;20140;-69
2023/10/26 04:19:57;;;;;;;26.17;17.63;;;;;;;;;;5039386;28;20056;-69
2023/10/26 04:22:23;;;;;;;28.35;17.48;;;;;;;;;;5045414;28;20043;-68
2023/10/26 04:24:49;;;;;;;30.23;17.63;;;9.70;99.90;;;;;;5039427;28;20052;-69
2023/10/26 04:27:15;;;;;;;27.45;18.02;;;;;;;;;;5044444;28;20052;-69
2023/10/26 04:29:42;;;;;;;29.17;18.52;;;;;;;;;;5033694;28;20101;-69
2023/10/26 04:32:08;;;;;;;34.97;20.48;;;;;;;;;;5040312;28;20041;-69
2023/10/26 04:34:34;;;;;;;31.05;18.80;;;;;;;;;;5052690;28;20066;-69
2023/10/26 04:37:00;;;;;;;43.83;21.00;;;9.90;99.90;;;;;;5027008;28;20048;-69
2023/10/26 04:39:25;;;;;;;39.95;21.35;;;9.90;99.90;;;;;;5045789;28;20046;-69
2023/10/26 04:41:51;;;;;;;44.33;21.42;;;;;;;;;;5046317;28;20048;-69
2023/10/26 04:44:18;;;;;;;46.35;23.02;;;;;;;;;;5037437;28;20424;-69
2023/10/26 04:46:44;;;;;;;72.93;23.27;;;;;;;;;;5065715;28;20347;-69
2023/10/26 04:49:10;;;;;;;51.08;22.85;;;9.90;99.90;;;;;;5052806;28;20061;-69
2023/10/26 04:51:35;;;;;;;33.03;21.45;;;9.80;99.90;;;;;;5041303;28;20513;-69
2023/10/26 04:54:01;;;;;;;75.05;21.63;;;;;;;;;;5050536;28;20044;-69
2023/10/26 04:56:28;;;;;;;90.00;24.23;;;;;;;;;;5044948;28;20046;-69
2023/10/26 04:58:54;;;;;;;41.92;21.42;;;;;;;;;;5043792;28;20432;-69
2023/10/26 05:01:20;;;;;;;104.75;23.40;;;9.90;99.90;;;;;;5039182;28;20067;-69
2023/10/26 05:03:46;;;;;;;41.88;22.00;;;;;;;;;;5045043;28;20032;-69
2023/10/26 05:06:12;;;;;;;143.68;24.88;;;;;;;;;;5046272;28;20479;-69
2023/10/26 05:08:38;;;;;;;210.80;26.90;;;;;;;;;;5034599;28;20111;-68
2023/10/26 05:11:04;;;;;;;133.77;23.23;;;;;;;;;;5035748;28;20071;-69
2023/10/26 05:13:31;;;;;;;172.07;26.15;;;;;;;;;;5035354;28;20440;-68
2023/10/26 05:15:57;;;;;;;227.93;27.80;;;;;;;;;;5045714;28;20040;-69
2023/10/26 05:18:23;;;;;;;191.50;27.15;;;;;;;;;;5046698;28;20044;-69
2023/10/26 05:20:49;;;;;;;65.80;20.27;;;;;;;;;;5038589;28;20384;-69
2023/10/26 05:23:15;;;;;;;129.95;24.25;;;;;;;;;;5060688;28;20068;-69
2023/10/26 05:25:41;;;;;;;118.88;21.42;;;9.60;99.90;;;;;;5023392;28;20507;-69
2023/10/26 05:28:07;;;;;;;180.20;24.77;;;9.60;99.90;;;;;;5040343;28;20181;-69
2023/10/26 05:30:33;;;;;;;72.60;21.10;;;;;;;;;;5041522;28;20182;-69
2023/10/26 05:32:59;;;;;;;96.25;22.00;;;;;;;;;;5058202;28;20041;-69
2023/10/26 05:35:25;;;;;;;90.63;21.27;;;;;;;;;;5047746;28;20044;-69
2023/10/26 05:37:50;;;;;;;47.80;20.08;;;;;;;;;;5062471;28;20044;-69
2023/10/26 05:40:16;;;;;;;119.30;21.67;;;9.70;99.90;;;;;;5038365;28;20052;-69
2023/10/26 05:42:42;;;;;;;72.70;21.20;;;9.50;99.90;;;;;;5062087;28;20060;-69
2023/10/26 05:45:08;;;;;;;58.17;20.40;;;;;;;;;;5050098;28;20190;-66
2023/10/26 05:47:34;;;;;;;64.43;20.73;;;;;;;;;;5048527;28;20044;-66
2023/10/26 05:50:00;;;;;;;150.48;23.33;;;;;;;;;;5037396;28;20142;-69
2023/10/26 05:52:26;;;;;;;115.45;21.17;;;;;;;;;;5032513;28;20056;-69
2023/10/26 05:54:52;;;;;;;87.28;21.42;;;;;;;;;;5041213;28;20048;-68
2023/10/26 05:57:18;;;;;;;94.28;21.85;;;;;;;;;;5059074;28;20089;-68
2023/10/26 05:59:44;;;;;;;44.33;20.00;;;;;;;;;;5040467;28;20149;-69
2023/10/26 06:02:10;;;;;;;51.92;19.58;;;;;;;;;;5059024;28;20083;-70
2023/10/26 06:04:36;;;;;;;46.88;20.20;;;;;;;;;;5045984;28;20163;-69
2023/10/26 06:07:03;;;;;;;42.35;19.98;;;;;;;;;;5054760;28;20087;-69
2023/10/26 06:09:29;;;;;;;67.20;20.30;;;;;;;;;;5059424;28;20048;-70
2023/10/26 06:11:55;;;;;;;42.58;19.38;;;;;;;;;;5040657;28;20044;-69
2023/10/26 06:14:21;;;;;;;30.42;18.85;;;;;;;;;;5056276;28;20082;-70
2023/10/26 06:16:47;;;;;;;57.03;20.25;;;9.40;99.90;;;;;;5038352;28;20040;-68
2023/10/26 06:19:13;;;;;;;112.28;22.25;;;;;;;;;;5040962;28;20226;-68
2023/10/26 06:21:39;;;;;;;35.53;19.73;;;;;;;;;;5036598;28;20051;-68
2023/10/26 06:24:06;;;;;;;53.25;21.40;;;;;;;;;;5040974;28;20049;-67
2023/10/26 06:26:32;;;;;;;74.00;22.58;;;;;;;;;;5041996;28;20048;-70
2023/10/26 06:28:59;;;;;;;73.78;21.92;;;;;;;;;;5039860;28;20136;-70
2023/10/26 06:31:25;;;;;;;35.15;20.17;;;;;;;;;;5039699;28;20048;-69
2023/10/26 06:33:51;;;;;;;59.60;21.15;;;;;;;;;;5054014;28;20448;-69
2023/10/26 06:36:17;;;;;;;61.97;20.40;;;;;;;;;;5043850;28;20562;-69
2023/10/26 06:38:43;;;;;;;38.08;18.70;;;;;;;;;;5038464;28;20549;-69
2023/10/26 06:41:10;;;;;;;67.22;20.23;;;;;;;;;;5039787;28;20036;-69
2023/10/26 06:43:36;;;;;;;68.75;21.35;;;;;;;;;;5038613;28;20153;-69
2023/10/26 06:46:02;;;;;;;42.30;19.92;;;;;;;;;;5037608;28;20044;-68
2023/10/26 06:48:28;;;;;;;68.68;20.83;;;;;;;;;;5053441;28;20048;-70
2023/10/26 06:51:00;;;;;;;39.75;20.75;;;9.20;99.90;;;;;;5040721;28;20509;-69
2023/10/26 06:53:26;;;;;;;51.03;20.80;;;;;;;;;;5059780;28;20032;-69
2023/10/26 06:55:53;;;;;;;30.00;19.33;;;;;;;;;;5043474;28;20049;-70
2023/10/26 06:58:19;;;;;;;74.75;22.15;;;;;;;;;;5041136;28;20131;-68
2023/10/26 07:00:45;;;;;;;54.17;21.33;;;;;;;;;;5039025;28;20048;-68
2023/10/26 07:03:11;;;;;;;32.97;20.27;;;;;;;;;;5042293;28;20048;-68
2023/10/26 07:05:37;;;;;;;40.03;20.88;;;;;;;;;;5039406;28;20041;-70
2023/10/26 07:08:04;;;;;;;40.45;20.27;;;;;;;;;;5057914;28;20051;-69
2023/10/26 07:10:31;;;;;;;49.83;22.25;;;;;;;;;;5042403;28;20049;-69
2023/10/26 07:12:57;;;;;;;40.25;20.67;;;;;;;;;;5033384;28;20057;-68
2023/10/26 07:15:23;;;;;;;36.60;21.35;;;;;;;;;;5037777;28;20526;-68
2023/10/26 07:17:49;;;;;;;79.22;21.85;;;;;;;;;;5043852;28;20495;-68
2023/10/26 07:20:15;;;;;;;40.90;20.80;;;;;;;;;;5035376;28;20476;-67
2023/10/26 07:22:42;;;;;;;122.15;23.17;;;;;;;;;;5059172;28;20036;-69
2023/10/26 07:25:08;;;;;;;69.90;21.80;;;;;;;;;;5039018;28;20052;-67
2023/10/26 07:27:35;;;;;;;65.70;21.27;;;;;;;;;;5039038;28;20040;-68
2023/10/26 07:30:01;;;;;;;119.53;21.73;;;;;;;;;;5046054;28;20111;-68
2023/10/26 07:32:27;;;;;;;72.43;22.08;;;;;;;;;;5025562;28;20053;-68
2023/10/26 07:34:54;;;;;;;70.35;22.33;;;;;;;;;;5057109;28;20056;-67
2023/10/26 07:37:20;;;;;;;59.92;20.15;;;;;;;;;;5042930;28;20389;-69
2023/10/26 07:39:46;;;;;;;51.00;21.50;;;;;;;;;;5034235;28;20123;-69
2023/10/26 07:42:12;;;;;;;65.85;20.95;;;;;;;;;;5044177;28;20056;-69
2023/10/26 07:44:38;;;;;;;82.93;22.15;;;;;;;;;;5035057;28;20388;-68
2023/10/26 07:47:11;;;;;;;39.20;19.20;;;;;;;;;;5040127;28;20049;-68
2023/10/26 07:49:37;;;;;;;82.95;22.17;;;;;;;;;;5038361;28;20064;-68
2023/10/26 07:52:03;;;;;;;40.60;21.17;;;;;;;;;;5060905;28;20037;-68
2023/10/26 07:54:29;;;;;;;41.55;19.65;;;;;;;;;;5043962;28;20151;-68
2023/10/26 07:56:55;;;;;;;72.55;21.70;;;;;;;;;;5044228;28;20101;-69
2023/10/26 07:59:21;;;;;;;48.22;20.73;;;;;;;;;;5044603;28;20434;-68
2023/10/26 08:01:47;;;;;;;49.35;18.75;;;;;;;;;;5041484;28;20655;-68
2023/10/26 08:04:13;;;;;;;42.30;20.35;;;;;;;;;;5059994;28;20040;-68
2023/10/26 08:06:39;;;;;;;89.90;21.95;;;;;;;;;;5039962;28;20074;-69
2023/10/26 08:09:05;;;;;;;54.60;20.60;;;;;;;;;;5054051;28;20137;-69
2023/10/26 08:11:31;;;;;;;92.90;21.98;;;;;;;;;;5060656;28;20071;-70
2023/10/26 08:13:58;;;;;;;84.80;22.30;;;;;;;;;;5039793;28;20068;-71
2023/10/26 08:16:24;;;;;;;49.75;20.08;;;;;;;;;;5040456;28;20122;-70
2023/10/26 08:18:50;;;;;;;51.70;21.10;;;9.70;99.90;;;;;;5043621;28;20536;-70
2023/10/26 08:21:16;;;;;;;39.30;20.90;;;;;;;;;;5043212;28;20149;-69
2023/10/26 08:23:42;;;;;;;37.20;20.60;;;;;;;;;;5040704;28;20053;-70
2023/10/26 08:26:09;;;;;;;45.25;22.45;;;;;;;;;;5049243;28;20047;-67
2023/10/26 08:28:36;;;;;;;37.83;23.00;;;;;;;;;;5042684;28;20041;-69
2023/10/26 08:31:02;;;;;;;43.40;23.30;;;;;;;;;;5043552;28;20044;-68
2023/10/26 08:33:30;;;;;;;41.95;23.73;;;;;;;;;;5061949;28;20033;-69
2023/10/26 08:35:56;;;;;;;45.08;25.33;;;;;;;;;;5025069;28;20798;-69
2023/10/26 08:38:25;;;;;;;47.08;25.35;;;;;;;;;;5029412;28;20493;-66
2023/10/26 08:40:51;;;;;;;52.58;26.88;;;;;;;;;;5043186;28;20499;-68
2023/10/26 08:43:18;;;;;;;53.60;27.75;;;10.00;99.90;;;;;;5043137;28;20044;-69
2023/10/26 08:45:45;;;;;;;50.97;26.75;;;;;;;;;;5060686;28;20073;-68
2023/10/26 08:48:15;;;;;;;47.05;26.83;;;;;;;;;;5039841;28;20072;-69
2023/10/26 08:50:41;;;;;;;46.92;26.20;;;;;;;;;;5039439;28;20493;-69
2023/10/26 08:53:07;;;;;;;51.55;26.52;;;;;;;;;;5058847;28;20086;-67
2023/10/26 08:55:34;;;;;;;50.60;25.20;;;;;;;;;;5039745;28;20048;-70
2023/10/26 08:58:02;;;;;;;40.58;24.80;;;;;;;;;;5043468;28;20056;-70
2023/10/26 09:00:32;;;;;;;45.45;24.45;;;;;;;;;;5047024;28;20055;-69
2023/10/26 09:02:58;;;;;;;45.67;25.60;;;;;;;;;;5041322;28;20056;-69
2023/10/26 09:05:24;;;;;;;42.50;24.85;;;;;;;;;;5042263;28;20590;-69
2023/10/26 09:07:53;;;;;;;43.63;24.65;;;;;;;;;;5040983;28;20156;-70
2023/10/26 09:10:30;;;;;;;45.63;26.48;;;;;;;;;;5040499;28;20040;-69
2023/10/26 09:13:00;;;;;;;50.17;24.65;;;;;;;;;;5039592;28;20067;-70
2023/10/26 09:15:27;;;;;;;45.78;26.23;;;;;;;;;;5062425;28;20051;-69
2023/10/26 09:17:56;;;;;;;39.90;23.75;;;;;;;;;;5065107;28;20044;-69
2023/10/26 09:20:23;;;;;;;43.15;23.98;;;;;;;;;;5039028;28;20127;-70
2023/10/26 09:22:49;;;;;;;42.28;25.13;;;;;;;;;;5032801;28;20131;-69
2023/10/26 09:25:15;;;;;;;41.95;24.25;;;;;;;;;;5035176;28;20155;-68
2023/10/26 09:27:42;;;;;;;42.03;24.55;;;;;;;;;;5061090;28;20083;-70
2023/10/26 09:30:24;;;;;;;41.83;24.73;;;;;;;;;;5060305;28;20067;-70
2023/10/26 09:32:50;;;;;;;44.60;24.50;;;;;;;;;;5046917;28;20075;-70
2023/10/26 09:35:27;;;;;;;46.80;26.17;;;10.40;99.90;;;;;;5054004;28;20115;-70
2023/10/26 09:37:53;;;;;;;40.17;23.50;;;;;;;;;;5039493;28;20369;-70
2023/10/26 09:40:20;;;;;;;39.95;23.58;;;;;;;;;;5060741;28;20067;-70
2023/10/26 09:42:46;;;;;;;40.53;24.02;;;;;;;;;;5062273;28;20491;-66
2023/10/26 09:45:12;;;;;;;44.58;24.83;;;;;;;;;;5044215;28;20118;-69
2023/10/26 09:47:38;;;;;;;44.05;23.77;;;;;;;;;;5048073;28;20475;-68
2023/10/26 09:50:05;;;;;;;35.85;21.75;;;;;;;;;;5041613;28;20052;-69
2023/10/26 09:52:31;;;;;;;39.63;22.42;;;;;;;;;;5038447;28;20052;-69
2023/10/26 09:54:57;;;;;;;36.65;22.20;;;;;;;;;;5060398;28;20052;-70
2023/10/26 09:57:27;;;;;;;40.03;22.08;;;;;;;;;;5047593;28;20053;-68
2023/10/26 09:59:54;;;;;;;38.17;22.65;;;;;;;;;;5043022;28;20057;-67
2023/10/26 10:02:20;;;;;;;37.40;22.63;;;;;;;;;;5063497;28;20052;-69
2023/10/26 10:04:48;;;;;;;42.05;22.98;;;;;;;;;;5034364;28;20041;-70
2023/10/26 10:07:17;;;;;;;36.90;22.27;;;;;;;;;;5040917;28;20052;-69
2023/10/26 10:10:02;;;;;;;36.88;21.02;;;;;;;;;;5041162;28;20462;-69
2023/10/26 10:12:28;;;;;;;40.13;23.38;;;10.80;99.90;;;;;;5064325;28;20040;-69
2023/10/26 10:14:54;;;;;;;40.05;24.02;;;;;;;;;;5050555;28;20442;-70
2023/10/26 10:17:46;;;;;;;38.05;22.30;;;10.90;99.90;;;;;;5051227;28;20051;-69
2023/10/26 10:20:15;;;;;;;39.17;23.15;;;;;;;;;;5051222;28;20586;-69
2023/10/26 10:22:41;;;;;;;40.53;23.02;;;;;;;;;;5064572;28;20041;-69
2023/10/26 10:25:11;;;;;;;37.92;23.23;;;11.20;99.90;;;;;;5049199;28;20496;-70
2023/10/26 10:27:40;;;;;;;47.13;25.13;;;;;;;;;;5061832;28;20463;-70
2023/10/26 10:30:10;;;;;;;43.80;25.77;;;;;;;;;;5058702;28;20037;-70
2023/10/26 10:32:48;;;;;;;42.72;23.73;;;;;;;;;;5026330;28;20133;-70
2023/10/26 10:35:32;;;;;;;43.50;23.98;;;;;;;;;;5052559;28;20045;-69
2023/10/26 10:38:13;;;;;;;45.22;25.00;;;11.30;99.90;;;;;;5048147;28;20051;-69
2023/10/26 10:40:54;;;;;;;41.35;23.92;;;11.10;99.90;;;;;;5041325;28;20052;-69
2023/10/26 10:43:30;;;;;;;38.33;23.20;;;;;;;;;;5044425;28;20087;-70
2023/10/26 10:45:56;;;;;;;42.63;24.02;;;;;;;;;;5041886;28;20067;-70
2023/10/26 10:48:22;;;;;;;42.30;23.80;;;;;;;;;;5041649;28;20060;-69
2023/10/26 10:50:51;;;;;;;42.78;23.73;;;;;;;;;;5058300;28;20562;-69
2023/10/26 10:53:17;;;;;;;39.20;22.60;;;;;;;;;;5044935;28;20111;-69
2023/10/26 10:55:44;;;;;;;40.72;23.33;;;;;;;;;;5064975;28;20060;-70
2023/10/26 10:58:10;;;;;;;39.22;23.52;;;;;;;;;;5048612;28;20036;-68
2023/10/26 11:00:43;;;;;;;38.80;22.45;;;;;;;;;;5038798;28;20044;-69
2023/10/26 11:03:09;;;;;;;37.75;21.30;;;;;;;;;;5061081;28;20051;-69
2023/10/26 11:05:36;;;;;;;32.00;19.83;;;;;;;;;;5063796;28;20039;-69
2023/10/26 11:08:02;;;;;;;33.65;19.13;;;;;;;;;;5060646;28;20179;-69
2023/10/26 11:10:28;;;;;;;29.83;18.27;;;11.50;99.90;;;;;;5044017;28;20044;-69
2023/10/26 11:12:54;;;;;;;32.40;19.83;;;;;;;;;;5048511;28;20041;-69
2023/10/26 11:15:20;;;;;;;37.08;20.80;;;;;;;;;;5061371;28;20588;-70
2023/10/26 11:17:47;;;;;;;34.50;21.77;;;11.70;99.90;;;;;;5043728;28;20041;-69
2023/10/26 11:20:32;;;;;;;32.95;19.90;;;;;;;;;;5061270;28;20052;-69
2023/10/26 11:22:58;;;;;;;32.90;22.47;;;;;;;;;;5059820;28;20507;-69
2023/10/26 11:25:27;;;;;;;30.45;19.50;;;11.80;99.90;;;;;;5044307;28;20052;-69
2023/10/26 11:27:53;;;;;;;27.45;18.60;;;;;;;;;;5056240;28;20044;-69
2023/10/26 11:30:19;;;;;;;27.85;17.67;;;;;;;;;;5062507;28;20048;-69
2023/10/26 11:32:45;;;;;;;30.38;17.88;;;;;;;;;;5062171;28;20047;-70
2023/10/26 11:35:13;;;;;;;28.52;17.63;;;;;;;;;;5045874;28;20080;-69
2023/10/26 11:37:43;;;;;;;24.77;16.42;;;;;;;;;;5043985;28;20052;-69
2023/10/26 11:40:10;;;;;;;24.05;14.52;;;12.00;99.90;;;;;;5043466;28;20047;-70
2023/10/26 11:42:50;;;;;;;32.10;19.05;;;;;;;;;;5047367;28;20040;-70
2023/10/26 11:45:17;;;;;;;26.48;17.35;;;12.20;99.90;;;;;;5040260;28;20044;-69
2023/10/26 11:47:44;;;;;;;27.05;18.52;;;;;;;;;;5032708;28;20126;-69
2023/10/26 11:50:27;;;;;;;31.58;19.45;;;;;;;;;;5062100;28;20068;-69
2023/10/26 11:52:55;;;;;;;34.22;20.38;;;12.10;99.90;;;;;;5065145;28;20032;-69
2023/10/26 11:55:21;;;;;;;28.00;19.23;;;;;;;;;;5046922;28;20051;-68
2023/10/26 11:57:48;;;;;;;31.20;18.77;;;;;;;;;;5059074;28;20051;-70
2023/10/26 12:00:14;;;;;;;27.15;17.92;;;;;;;;;;5044348;28;20049;-69
2023/10/26 12:02:40;;;;;;;27.17;16.00;;;;;;;;;;5046222;28;20512;-69
2023/10/26 12:05:13;;;;;;;25.73;16.50;;;;;;;;;;5063565;28;20400;-69
2023/10/26 12:07:39;;;;;;;23.98;15.98;;;;;;;;;;5060954;28;20045;-69
2023/10/26 12:10:05;;;;;;;26.13;16.75;;;;;;;;;;5062116;28;20149;-69
2023/10/26 12:12:30;;;;;;;24.75;16.23;;;11.90;99.90;;;;;;5045939;28;20224;-70
2023/10/26 12:14:56;;;;;;;22.25;14.95;;;;;;;;;;5042028;28;20039;-69
2023/10/26 12:17:22;;;;;;;23.80;14.65;;;;;;;;;;5056870;28;20490;-70
2023/10/26 12:19:48;;;;;;;26.65;15.95;;;;;;;;;;5045737;28;20044;-70
2023/10/26 12:22:14;;;;;;;25.67;15.30;;;;;;;;;;5042091;28;20036;-70
2023/10/26 12:24:40;;;;;;;26.05;16.27;;;;;;;;;;5059369;28;20056;-69
2023/10/26 12:27:06;;;;;;;24.30;15.05;;;;;;;;;;5045569;28;20079;-69
2023/10/26 12:29:32;;;;;;;19.92;13.57;;;;;;;;;;5061348;28;20516;-69
2023/10/26 12:31:58;;;;;;;21.52;14.02;;;;;;;;;;5044397;28;20036;-68
2023/10/26 12:34:24;;;;;;;21.17;12.90;;;;;;;;;;5060477;28;20471;-69
2023/10/26 12:36:50;;;;;;;18.90;13.23;;;;;;;;;;5059422;28;20071;-69
2023/10/26 12:39:16;;;;;;;20.45;13.27;;;;;;;;;;5036382;28;20132;-70
2023/10/26 12:41:42;;;;;;;18.73;12.43;;;;;;;;;;5042896;28;20514;-69
2023/10/26 12:44:08;;;;;;;19.92;13.30;;;;;;;;;;5040541;28;20045;-68
2023/10/26 12:46:34;;;;;;;18.77;11.73;;;;;;;;;;5055736;28;20203;-69
2023/10/26 12:49:00;;;;;;;20.17;13.82;;;;;;;;;;5058207;28;20600;-69
2023/10/26 12:51:26;;;;;;;17.88;12.30;;;;;;;;;;5044924;28;20056;-69
2023/10/26 12:53:52;;;;;;;18.25;12.00;;;;;;;;;;5043653;28;20136;-69
2023/10/26 12:56:18;;;;;;;19.10;12.38;;;;;;;;;;5040599;28;20037;-70
2023/10/26 12:58:44;;;;;;;17.73;12.23;;;12.30;99.90;;;;;;5063428;28;20509;-69
2023/10/26 13:01:10;;;;;;;16.73;11.43;;;;;;;;;;5041793;28;20049;-69
2023/10/26 13:03:35;;;;;;;19.38;12.38;;;;;;;;;;5058931;28;20352;-70
2023/10/26 13:06:01;;;;;;;20.10;13.23;;;;;;;;;;5061622;28;20042;-70
2023/10/26 13:08:27;;;;;;;21.25;13.18;;;;;;;;;;5046976;28;20048;-69
2023/10/26 13:10:53;;;;;;;20.42;12.88;;;;;;;;;;5041119;28;20075;-70
2023/10/26 13:13:19;;;;;;;21.30;11.73;;;12.30;99.90;;;;;;5056539;28;20098;-70
2023/10/26 13:15:45;;;;;;;17.67;12.10;;;;;;;;;;5046186;28;20032;-69
2023/10/26 13:18:11;;;;;;;17.65;12.55;;;;;;;;;;5057213;28;20519;-69
2023/10/26 13:20:37;;;;;;;17.75;12.70;;;;;;;;;;5061470;28;20134;-69
2023/10/26 13:23:03;;;;;;;18.80;12.27;;;;;;;;;;5041510;28;20496;-69
2023/10/26 13:25:30;;;;;;;20.20;13.82;;;;;;;;;;5052700;28;20499;-69
2023/10/26 13:27:59;;;;;;;20.70;13.35;;;;;;;;;;5039667;28;20450;-69
2023/10/26 13:30:25;;;;;;;23.38;13.85;;;;;;;;;;5061453;28;20055;-69
2023/10/26 13:32:52;;;;;;;21.80;14.27;;;;;;;;;;5057672;28;20127;-69
2023/10/26 13:35:18;;;;;;;21.75;14.38;;;;;;;;;;5044999;28;20044;-69
2023/10/26 13:37:44;;;;;;;23.95;13.90;;;;;;;;;;5045190;28;20040;-69
2023/10/26 13:40:10;;;;;;;18.80;12.73;;;;;;;;;;5050840;28;20052;-69
2023/10/26 13:42:36;;;;;;;23.30;13.98;;;;;;;;;;5054718;28;20492;-70
2023/10/26 13:45:02;;;;;;;19.80;14.18;;;;;;;;;;5065398;28;20039;-70
2023/10/26 13:47:28;;;;;;;19.98;13.50;;;;;;;;;;5046177;28;20123;-69
2023/10/26 13:49:54;;;;;;;20.00;13.73;;;;;;;;;;5046023;28;20057;-70
2023/10/26 13:52:20;;;;;;;20.10;13.95;;;;;;;;;;5050862;28;20890;-69
2023/10/26 13:54:46;;;;;;;20.55;13.85;;;;;;;;;;5041977;28;20044;-70
2023/10/26 13:57:12;;;;;;;20.23;13.98;;;11.50;99.90;;;;;;5057284;28;20507;-70
2023/10/26 13:59:39;;;;;;;22.48;13.50;;;;;;;;;;5043022;28;20133;-68